createdAt,value
2019-01-02T00:01:29.461Z,95101.48
2019-01-02T00:04:01.410Z,95095.89
2019-01-02T00:06:32.939Z,95094.72
2019-01-02T00:09:05.749Z,95087.91
2019-01-02T00:11:37.242Z,95089.30
2019-01-02T00:14:08.729Z,95094.72
2019-01-02T00:16:40.058Z,95096.62
2019-01-02T00:19:11.655Z,95095.35
2019-01-02T00:21:43.263Z,95099.45
2019-01-02T00:24:14.715Z,95096.26
2019-01-02T00:26:46.205Z,95096.00
2019-01-02T00:29:17.788Z,95104.67
2019-01-02T00:31:49.224Z,95100.02
2019-01-02T00:34:21.193Z,95099.77
2019-01-02T00:36:52.549Z,95097.66
2019-01-02T00:39:24.171Z,95092.02
2019-01-02T00:41:55.647Z,95092.12
2019-01-02T00:44:27.348Z,95091.00
2019-01-02T00:46:58.873Z,95091.56
2019-01-02T00:49:30.332Z,95087.35
2019-01-02T00:52:01.715Z,95081.23
2019-01-02T00:54:33.044Z,95080.41
2019-01-02T00:57:04.702Z,95074.89
2019-01-02T00:59:36.090Z,95071.60
2019-01-02T01:02:07.697Z,95064.47
2019-01-02T01:04:39.153Z,95062.73
2019-01-02T01:07:10.439Z,95053.94
2019-01-02T01:09:41.949Z,95054.67
2019-01-02T01:12:13.448Z,95064.83
2019-01-02T01:14:44.976Z,95059.61
2019-01-02T01:17:16.649Z,95055.66
2019-01-02T01:19:48.043Z,95051.45
2019-01-02T01:22:19.746Z,95049.61
2019-01-02T01:24:51.279Z,95037.98
2019-01-02T01:27:22.751Z,95033.30
2019-01-02T01:29:54.461Z,95033.47
2019-01-02T01:32:25.896Z,95029.92
2019-01-02T01:34:57.719Z,95024.50
2019-01-02T01:37:29.124Z,95016.91
2019-01-02T01:40:00.863Z,95017.17
2019-01-02T01:42:32.797Z,95011.06
2019-01-02T01:45:04.476Z,95000.51
2019-01-02T01:47:36.145Z,95003.70
2019-01-02T01:50:08.641Z,95000.25
2019-01-02T01:52:40.190Z,94996.14
2019-01-02T01:55:11.899Z,94997.06
2019-01-02T01:57:43.657Z,94989.62
2019-01-02T02:00:17.882Z,94992.29
2019-01-02T02:02:49.246Z,94983.97
2019-01-02T02:05:20.736Z,94982.13
2019-01-02T02:07:52.136Z,94974.79
2019-01-02T02:10:23.470Z,94973.97
2019-01-02T02:12:54.739Z,94972.16
2019-01-02T02:15:26.361Z,94962.52
2019-01-02T02:17:58.023Z,94969.58
2019-01-02T02:20:29.606Z,94965.00
2019-01-02T02:23:01.158Z,94960.23
2019-01-02T02:25:32.760Z,94955.94
2019-01-02T02:28:04.457Z,94951.81
2019-01-02T02:30:35.985Z,94945.95
2019-01-02T02:33:07.467Z,94942.76
2019-01-02T02:35:39.339Z,94937.34
2019-01-02T02:38:11.070Z,94935.70
2019-01-02T02:40:42.757Z,94936.63
2019-01-02T02:43:14.006Z,94937.37
2019-01-02T02:45:45.507Z,94934.34
2019-01-02T02:48:17.258Z,94943.59
2019-01-02T02:50:48.830Z,94930.22
2019-01-02T02:53:20.179Z,94929.30
2019-01-02T02:55:51.741Z,94930.02
2019-01-02T02:58:23.133Z,94925.73
2019-01-02T03:00:54.537Z,94925.36
2019-01-02T03:03:26.246Z,94918.67
2019-01-02T03:05:57.962Z,94916.28
2019-01-02T03:08:29.247Z,94910.50
2019-01-02T03:11:00.728Z,94908.66
2019-01-02T03:13:32.407Z,94908.60
2019-01-02T03:16:04.103Z,94905.38
2019-01-02T03:18:35.669Z,94907.78
2019-01-02T03:21:07.030Z,94911.59
2019-01-02T03:23:38.490Z,94905.22
2019-01-02T03:26:10.056Z,94908.41
2019-01-02T03:28:41.266Z,94901.44
2019-01-02T03:31:13.126Z,94903.08
2019-01-02T03:33:45.049Z,94894.68
2019-01-02T03:36:16.527Z,94900.00
2019-01-02T03:38:47.970Z,94901.23
2019-01-02T03:41:19.625Z,94905.04
2019-01-02T03:43:51.106Z,94900.63
2019-01-02T03:46:22.873Z,94892.78
2019-01-02T03:48:54.573Z,94892.58
2019-01-02T03:51:26.079Z,94890.95
2019-01-02T03:53:57.458Z,94889.45
2019-01-02T03:56:29.218Z,94889.66
2019-01-02T03:59:00.503Z,94884.33
2019-01-02T04:01:32.050Z,94883.42
2019-01-02T04:04:03.417Z,94877.58
2019-01-02T04:06:34.860Z,94872.86
2019-01-02T04:09:08.656Z,94862.75
2019-01-02T04:11:40.095Z,94853.79
2019-01-02T04:14:11.455Z,94859.67
2019-01-02T04:16:43.111Z,94863.05
2019-01-02T04:19:14.416Z,94848.09
2019-01-02T04:21:45.855Z,94850.30
2019-01-02T04:24:17.309Z,94849.11
2019-01-02T04:26:48.768Z,94837.76
2019-01-02T04:29:20.117Z,94843.63
2019-01-02T04:31:51.672Z,94849.11
2019-01-02T04:34:22.952Z,94850.33
2019-01-02T04:36:54.464Z,94849.57
2019-01-02T04:39:25.887Z,94846.02
2019-01-02T04:41:57.344Z,94850.41
2019-01-02T04:44:28.794Z,94847.86
2019-01-02T04:46:59.961Z,94841.25
2019-01-02T04:49:31.350Z,94842.63
2019-01-02T04:52:02.728Z,94842.89
2019-01-02T04:54:34.114Z,94844.73
2019-01-02T04:57:05.508Z,94846.38
2019-01-02T04:59:36.815Z,94851.86
2019-01-02T05:02:08.402Z,94853.70
2019-01-02T05:04:39.631Z,94848.13
2019-01-02T05:07:11.229Z,94848.67
2019-01-02T05:09:42.592Z,94858.91
2019-01-02T05:12:13.915Z,94853.08
2019-01-02T05:14:45.522Z,94849.85
2019-01-02T05:17:16.855Z,94846.02
2019-01-02T05:19:48.314Z,94847.53
2019-01-02T05:22:19.715Z,94851.17
2019-01-02T05:24:52.181Z,94843.03
2019-01-02T05:27:23.651Z,94839.30
2019-01-02T05:29:54.978Z,94842.00
2019-01-02T05:32:26.368Z,94836.07
2019-01-02T05:34:57.853Z,94846.57
2019-01-02T05:37:29.246Z,94837.81
2019-01-02T05:40:00.631Z,94835.41
2019-01-02T05:42:32.234Z,94835.53
2019-01-02T05:45:03.948Z,94834.98
2019-01-02T05:47:35.482Z,94823.52
2019-01-02T05:50:07.255Z,94825.62
2019-01-02T05:52:38.859Z,94823.64
2019-01-02T05:55:10.287Z,94814.45
2019-01-02T05:57:41.694Z,94814.56
2019-01-02T06:00:14.802Z,94805.50
2019-01-02T06:02:46.282Z,94801.09
2019-01-02T06:05:17.377Z,94798.66
2019-01-02T06:07:48.785Z,94789.45
2019-01-02T06:10:19.837Z,94795.71
2019-01-02T06:12:51.432Z,94789.48
2019-01-02T06:15:22.815Z,94784.82
2019-01-02T06:17:54.102Z,94793.86
2019-01-02T06:20:25.199Z,94803.47
2019-01-02T06:22:56.502Z,94809.88
2019-01-02T06:25:28.059Z,94804.89
2019-01-02T06:27:59.366Z,94795.03
2019-01-02T06:30:30.701Z,94794.06
2019-01-02T06:33:02.181Z,94801.98
2019-01-02T06:35:33.251Z,94811.70
2019-01-02T06:38:04.577Z,94811.76
2019-01-02T06:40:35.821Z,94822.29
2019-01-02T06:43:07.218Z,94826.65
2019-01-02T06:45:38.592Z,94820.20
2019-01-02T06:48:10.101Z,94823.96
2019-01-02T06:50:41.661Z,94840.00
2019-01-02T06:53:13.094Z,94836.48
2019-01-02T06:55:44.428Z,94848.47
2019-01-02T06:58:16.176Z,94854.44
2019-01-02T07:00:47.598Z,94850.92
2019-01-02T07:03:19.068Z,94846.03
2019-01-02T07:05:50.080Z,94851.27
2019-01-02T07:08:21.189Z,94855.27
2019-01-02T07:10:52.384Z,94855.23
2019-01-02T07:13:23.580Z,94857.53
2019-01-02T07:15:55.140Z,94860.21
2019-01-02T07:18:26.594Z,94854.61
2019-01-02T07:20:57.776Z,94851.86
2019-01-02T07:23:28.976Z,94854.33
2019-01-02T07:26:00.070Z,94861.74
2019-01-02T07:28:31.765Z,94857.92
2019-01-02T07:31:03.248Z,94849.30
2019-01-02T07:33:59.714Z,94844.56
2019-01-02T07:37:06.750Z,94847.75
2019-01-02T07:39:55.618Z,94858.38
2019-01-02T07:43:16.525Z,94844.55
2019-01-02T07:46:23.420Z,94840.87
2019-01-02T07:49:40.002Z,94836.03
2019-01-02T07:52:32.420Z,94835.77
2019-01-02T07:56:02.392Z,94835.58
2019-01-02T07:59:04.448Z,94823.78
2019-01-02T08:02:10.736Z,94819.49
2019-01-02T08:05:27.638Z,94822.50
2019-01-02T08:08:28.478Z,94827.86
2019-01-02T08:11:36.259Z,94823.94
2019-01-02T08:14:44.385Z,94820.84
2019-01-02T08:17:43.670Z,94804.81
2019-01-02T08:20:55.781Z,94803.39
2019-01-02T08:24:14.540Z,94815.65
2019-01-02T08:27:27.994Z,94816.14
2019-01-02T08:30:25.486Z,94810.38
2019-01-02T08:33:30.452Z,94810.55
2019-01-02T08:36:40.250Z,94804.95
2019-01-02T08:39:53.581Z,94795.06
2019-01-02T08:43:29.887Z,94788.05
2019-01-02T08:46:44.068Z,94781.27
2019-01-02T08:49:41.167Z,94774.72
2019-01-02T08:52:55.138Z,94775.47
2019-01-02T08:56:01.067Z,94769.89
2019-01-02T08:59:20.040Z,94772.50
2019-01-02T09:02:34.067Z,94781.06
2019-01-02T09:05:21.431Z,94784.42
2019-01-02T09:08:16.003Z,94774.19
2019-01-02T09:11:14.631Z,94772.61
2019-01-02T09:14:38.363Z,94771.01
2019-01-02T09:17:44.366Z,94759.69
2019-01-02T09:20:59.223Z,94746.14
2019-01-02T09:24:12.790Z,94739.28
2019-01-02T09:27:48.885Z,94725.91
2019-01-02T09:30:58.616Z,94723.86
2019-01-02T09:33:52.973Z,94728.58
2019-01-02T09:36:59.522Z,94727.11
2019-01-02T09:40:13.451Z,94717.05
2019-01-02T09:43:26.192Z,94717.66
2019-01-02T09:46:56.258Z,94708.30
2019-01-02T09:50:01.758Z,94705.31
2019-01-02T09:53:05.667Z,94696.17
2019-01-02T09:56:05.174Z,94693.69
2019-01-02T09:59:27.696Z,94680.39
2019-01-02T10:02:51.770Z,94679.94
2019-01-02T10:05:59.244Z,94671.84
2019-01-02T10:09:11.079Z,94671.42
2019-01-02T10:11:59.021Z,94664.85
2019-01-02T10:15:01.355Z,94654.20
2019-01-02T10:18:00.557Z,94653.73
2019-01-02T10:21:36.939Z,94652.78
2019-01-02T10:24:58.337Z,94652.31
2019-01-02T10:28:23.775Z,94664.02
2019-01-02T10:31:38.573Z,94655.02
2019-01-02T10:34:27.892Z,94648.91
2019-01-02T10:37:31.012Z,94645.98
2019-01-02T10:40:51.929Z,94652.30
2019-01-02T10:44:01.204Z,94648.53
2019-01-02T10:47:06.920Z,94640.94
2019-01-02T10:50:06.532Z,94644.34
2019-01-02T10:53:30.024Z,94629.79
2019-01-02T10:56:51.217Z,94629.42
2019-01-02T11:00:07.481Z,94621.97
2019-01-02T11:03:18.301Z,94620.05
2019-01-02T11:06:32.483Z,94640.48
2019-01-02T11:09:41.572Z,94635.91
2019-01-02T11:12:58.278Z,94628.44
2019-01-02T11:16:16.222Z,94623.84
2019-01-02T11:19:52.148Z,94613.48
2019-01-02T11:23:18.800Z,94612.72
2019-01-02T11:26:37.066Z,94624.81
2019-01-02T11:29:39.545Z,94625.06
2019-01-02T11:32:46.713Z,94617.27
2019-01-02T11:35:59.569Z,94613.29
2019-01-02T11:38:53.165Z,94611.42
2019-01-02T11:42:18.234Z,94605.70
2019-01-02T11:45:14.329Z,94599.34
2019-01-02T11:47:45.851Z,94595.65
2019-01-02T11:50:17.565Z,94586.56
2019-01-02T11:52:48.850Z,94574.27
2019-01-02T11:55:20.395Z,94574.73
2019-01-02T11:57:51.769Z,94578.75
2019-01-02T12:00:23.298Z,94577.83
2019-01-02T12:02:54.720Z,94570.94
2019-01-02T12:05:26.082Z,94575.23
2019-01-02T12:07:57.682Z,94573.44
2019-01-02T12:10:29.121Z,94571.69
2019-01-02T12:13:00.604Z,94571.80
2019-01-02T12:15:31.778Z,94576.81
2019-01-02T12:18:02.858Z,94570.05
2019-01-02T12:20:35.123Z,94565.18
2019-01-02T12:23:06.378Z,94567.56
2019-01-02T12:25:37.629Z,94568.77
2019-01-02T12:28:09.176Z,94575.83
2019-01-02T12:30:40.509Z,94570.93
2019-01-02T12:33:12.136Z,94563.52
2019-01-02T12:35:43.571Z,94562.17
2019-01-02T12:38:15.027Z,94559.28
2019-01-02T12:40:46.699Z,94548.02
2019-01-02T12:43:18.086Z,94550.53
2019-01-02T12:45:49.418Z,94554.22
2019-01-02T12:48:21.061Z,94557.41
2019-01-02T12:50:52.174Z,94557.56
2019-01-02T12:53:23.354Z,94559.13
2019-01-02T12:55:54.416Z,94558.89
2019-01-02T12:58:25.533Z,94563.19
2019-01-02T13:01:07.690Z,94568.46
2019-01-02T13:04:15.368Z,94569.26
2019-01-02T13:07:25.578Z,94565.63
2019-01-02T13:10:28.184Z,94558.81
2019-01-02T13:13:47.934Z,94561.91
2019-01-02T13:16:53.493Z,94554.42
2019-01-02T13:20:01.701Z,94564.56
2019-01-02T13:22:58.029Z,94556.09
2019-01-02T13:25:46.638Z,94560.63
2019-01-02T13:29:00.530Z,94563.09
2019-01-02T13:32:12.252Z,94571.52
2019-01-02T13:35:08.107Z,94570.81
2019-01-02T13:38:05.618Z,94577.52
2019-01-02T13:41:19.320Z,94577.81
2019-01-02T13:44:09.792Z,94579.52
2019-01-02T13:47:27.563Z,94584.83
2019-01-02T13:50:48.489Z,94596.44
2019-01-02T13:53:21.682Z,94594.83
2019-01-02T13:55:52.814Z,94603.03
2019-01-02T13:58:24.078Z,94613.68
2019-01-02T14:00:56.254Z,94605.27
2019-01-02T14:03:27.675Z,94613.55
2019-01-02T14:06:00.136Z,94615.42
2019-01-02T14:08:31.594Z,94614.47
2019-01-02T14:11:02.739Z,94619.02
2019-01-02T14:13:33.949Z,94624.02
2019-01-02T14:16:05.063Z,94636.36
2019-01-02T14:18:36.242Z,94645.94
2019-01-02T14:21:07.923Z,94634.93
2019-01-02T14:23:39.387Z,94629.99
2019-01-02T14:26:10.611Z,94629.70
2019-01-02T14:28:41.844Z,94632.31
2019-01-02T14:31:13.405Z,94638.02
2019-01-02T14:33:44.583Z,94645.15
2019-01-02T14:36:15.869Z,94647.17
2019-01-02T14:38:47.257Z,94652.72
2019-01-02T14:41:19.670Z,94653.19
2019-01-02T14:43:51.091Z,94661.92
2019-01-02T14:46:22.656Z,94661.61
2019-01-02T14:48:53.818Z,94654.91
2019-01-02T14:51:25.286Z,94660.66
2019-01-02T14:53:56.675Z,94664.02
2019-01-02T14:56:28.143Z,94669.27
2019-01-02T14:58:59.273Z,94666.09
2019-01-02T15:01:30.645Z,94670.14
2019-01-02T15:04:02.106Z,94676.22
2019-01-02T15:06:33.247Z,94677.15
2019-01-02T15:09:05.768Z,94677.62
2019-01-02T15:11:37.113Z,94676.53
2019-01-02T15:14:08.697Z,94682.09
2019-01-02T15:16:44.529Z,94680.72
2019-01-02T15:19:13.150Z,94686.75
2019-01-02T15:21:44.316Z,94684.58
2019-01-02T15:24:15.801Z,94684.63
2019-01-02T15:26:47.358Z,94689.03
2019-01-02T15:29:18.630Z,94688.37
2019-01-02T15:31:50.080Z,94690.42
2019-01-02T15:34:21.180Z,94696.94
2019-01-02T15:36:52.630Z,94696.55
2019-01-02T15:39:23.858Z,94699.62
2019-01-02T15:41:55.246Z,94697.19
2019-01-02T15:44:26.681Z,94698.17
2019-01-02T15:46:57.956Z,94695.77
2019-01-02T15:49:29.150Z,94701.33
2019-01-02T15:52:00.559Z,94692.23
2019-01-02T15:54:31.916Z,94700.62
2019-01-02T15:57:03.392Z,94693.09
2019-01-02T15:59:34.811Z,94692.80
2019-01-02T16:02:06.195Z,94701.84
2019-01-02T16:04:41.074Z,94695.42
2019-01-02T16:07:10.773Z,94703.05
2019-01-02T16:09:42.164Z,94705.16
2019-01-02T16:12:13.797Z,94707.59
2019-01-02T16:14:45.177Z,94710.80
2019-01-02T16:17:17.224Z,94708.53
2019-01-02T16:19:48.321Z,94712.97
2019-01-02T16:22:20.703Z,94714.40
2019-01-02T16:24:52.059Z,94721.27
2019-01-02T16:27:23.499Z,94719.45
2019-01-02T16:29:54.878Z,94713.58
2019-01-02T16:32:26.317Z,94723.30
2019-01-02T16:34:57.619Z,94722.34
2019-01-02T16:37:28.887Z,94718.20
2019-01-02T16:40:00.319Z,94717.81
2019-01-02T16:42:32.519Z,94721.59
2019-01-02T16:45:03.961Z,94722.01
2019-01-02T16:47:36.054Z,94714.48
2019-01-02T16:50:08.259Z,94713.02
2019-01-02T16:52:39.390Z,94713.44
2019-01-02T16:55:10.778Z,94714.32
2019-01-02T16:57:42.667Z,94708.62
2019-01-02T17:00:15.002Z,94710.72
2019-01-02T17:02:46.462Z,94713.56
2019-01-02T17:05:17.856Z,94702.25
2019-01-02T17:07:49.865Z,94706.67
2019-01-02T17:10:21.537Z,94708.62
2019-01-02T17:12:52.686Z,94708.55
2019-01-02T17:15:23.982Z,94716.36
2019-01-02T17:17:55.133Z,94719.74
2019-01-02T17:20:26.271Z,94717.17
2019-01-02T17:22:57.644Z,94713.63
2019-01-02T17:25:28.894Z,94712.11
2019-01-02T17:28:00.139Z,94725.23
2019-01-02T17:30:31.203Z,94724.52
2019-01-02T17:33:02.347Z,94724.41
2019-01-02T17:35:33.551Z,94728.25
2019-01-02T17:38:05.703Z,94725.99
2019-01-02T17:40:37.053Z,94720.67
2019-01-02T17:43:08.197Z,94719.30
2019-01-02T17:45:39.264Z,94720.27
2019-01-02T17:48:10.577Z,94724.98
2019-01-02T17:50:41.852Z,94723.70
2019-01-02T17:53:13.156Z,94718.28
2019-01-02T17:55:44.511Z,94717.34
2019-01-02T17:58:15.651Z,94726.05
2019-01-02T18:00:46.778Z,94723.83
2019-01-02T18:03:18.127Z,94722.95
2019-01-02T18:05:49.351Z,94716.42
2019-01-02T18:08:21.687Z,94725.06
2019-01-02T18:10:52.890Z,94723.06
2019-01-02T18:13:24.043Z,94728.56
2019-01-02T18:15:55.441Z,94729.84
2019-01-02T18:18:28.095Z,94733.45
2019-01-02T18:20:59.459Z,94727.14
2019-01-02T18:23:30.822Z,94734.37
2019-01-02T18:26:02.211Z,94738.64
2019-01-02T18:28:33.387Z,94736.48
2019-01-02T18:31:04.777Z,94735.55
2019-01-02T18:33:36.341Z,94737.36
2019-01-02T18:36:07.854Z,94739.73
2019-01-02T18:38:38.956Z,94739.81
2019-01-02T18:41:10.324Z,94741.36
2019-01-02T18:43:41.809Z,94735.17
2019-01-02T18:46:13.112Z,94735.25
2019-01-02T18:48:44.441Z,94731.67
2019-01-02T18:51:15.630Z,94743.74
2019-01-02T18:53:46.779Z,94745.22
2019-01-02T18:56:18.113Z,94750.46
2019-01-02T18:58:49.447Z,94751.44
2019-01-02T19:01:20.814Z,94748.70
2019-01-02T19:03:52.364Z,94742.45
2019-01-02T19:06:23.704Z,94746.03
2019-01-02T19:08:55.027Z,94749.80
2019-01-02T19:11:27.500Z,94753.49
2019-01-02T19:13:58.949Z,94758.73
2019-01-02T19:16:30.240Z,94754.01
2019-01-02T19:19:01.608Z,94750.63
2019-01-02T19:21:32.832Z,94747.67
2019-01-02T19:24:04.411Z,94755.19
2019-01-02T19:26:35.730Z,94751.91
2019-01-02T19:29:07.005Z,94744.34
2019-01-02T19:31:38.305Z,94749.94
2019-01-02T19:34:09.793Z,94748.91
2019-01-02T19:36:41.467Z,94745.33
2019-01-02T19:39:13.026Z,94746.65
2019-01-02T19:41:44.466Z,94738.64
2019-01-02T19:44:16.230Z,94738.43
2019-01-02T19:46:47.638Z,94750.86
2019-01-02T19:49:18.999Z,94744.80
2019-01-02T19:51:50.421Z,94741.83
2019-01-02T19:54:21.602Z,94741.77
2019-01-02T19:56:52.618Z,94740.25
2019-01-02T19:59:23.902Z,94740.49
2019-01-02T20:01:55.318Z,94737.45
2019-01-02T20:04:26.494Z,94737.00
2019-01-02T20:06:58.020Z,94739.32
2019-01-02T20:09:29.436Z,94737.87
2019-01-02T20:12:00.837Z,94739.38
2019-01-02T20:14:32.199Z,94731.20
2019-01-02T20:17:03.582Z,94734.08
2019-01-02T20:19:34.848Z,94730.06
2019-01-02T20:22:06.241Z,94725.91
2019-01-02T20:24:37.813Z,94737.48
2019-01-02T20:27:09.221Z,94733.20
2019-01-02T20:29:40.608Z,94730.36
2019-01-02T20:32:12.105Z,94731.83
2019-01-02T20:34:43.388Z,94732.86
2019-01-02T20:37:14.800Z,94730.00
2019-01-02T20:39:46.146Z,94727.39
2019-01-02T20:42:17.470Z,94721.09
2019-01-02T20:44:49.180Z,94719.16
2019-01-02T20:47:20.573Z,94720.34
2019-01-02T20:49:52.034Z,94714.80
2019-01-02T20:52:23.388Z,94712.62
2019-01-02T20:54:54.819Z,94712.05
2019-01-02T20:57:26.313Z,94710.35
2019-01-02T20:59:57.699Z,94706.86
2019-01-02T21:02:28.876Z,94709.77
2019-01-02T21:05:00.146Z,94710.13
2019-01-02T21:07:31.623Z,94713.10
2019-01-02T21:10:03.099Z,94709.77
2019-01-02T21:12:34.778Z,94706.16
2019-01-02T21:15:06.849Z,94707.91
2019-01-02T21:17:38.124Z,94700.55
2019-01-02T21:20:10.494Z,94695.78
2019-01-02T21:22:41.771Z,94704.41
2019-01-02T21:25:13.076Z,94700.66
2019-01-02T21:27:44.569Z,94705.47
2019-01-02T21:30:15.923Z,94702.25
2019-01-02T21:32:47.365Z,94703.35
2019-01-02T21:35:18.702Z,94702.89
2019-01-02T21:37:50.162Z,94701.85
2019-01-02T21:40:21.533Z,94703.08
2019-01-02T21:42:53.119Z,94706.04
2019-01-02T21:45:24.263Z,94715.39
2019-01-02T21:47:55.771Z,94707.97
2019-01-02T21:50:27.077Z,94709.88
2019-01-02T21:52:58.524Z,94708.38
2019-01-02T21:55:30.093Z,94704.23
2019-01-02T21:58:02.035Z,94699.23
2019-01-02T22:00:33.628Z,94703.41
2019-01-02T22:03:05.099Z,94698.47
2019-01-02T22:05:36.522Z,94696.95
2019-01-02T22:08:07.621Z,94710.65
2019-01-02T22:10:38.812Z,94707.16
2019-01-02T22:13:09.929Z,94707.09
2019-01-02T22:15:41.077Z,94703.47
2019-01-02T22:18:12.262Z,94700.92
2019-01-02T22:20:43.736Z,94710.12
2019-01-02T22:23:15.079Z,94710.59
2019-01-02T22:25:46.242Z,94711.35
2019-01-02T22:28:17.710Z,94716.90
2019-01-02T22:30:49.268Z,94718.81
2019-01-02T22:33:20.478Z,94711.75
2019-01-02T22:35:52.057Z,94718.45
2019-01-02T22:38:23.321Z,94721.19
2019-01-02T22:40:54.582Z,94724.58
2019-01-02T22:43:25.683Z,94726.92
2019-01-02T22:45:56.830Z,94727.14
2019-01-02T22:48:28.032Z,94730.23
2019-01-02T22:50:59.324Z,94721.36
2019-01-02T22:53:30.420Z,94716.41
2019-01-02T22:56:01.939Z,94720.67
2019-01-02T22:58:33.185Z,94721.66
2019-01-02T23:01:07.801Z,94726.78
2019-01-02T23:03:56.798Z,94725.80
2019-01-02T23:06:45.683Z,94724.52
2019-01-02T23:09:45.457Z,94718.64
2019-01-02T23:12:34.309Z,94724.75
2019-01-02T23:15:24.258Z,94722.60
2019-01-02T23:18:32.585Z,94718.64
2019-01-02T23:21:28.709Z,94716.55
2019-01-02T23:24:31.732Z,94714.27
2019-01-02T23:27:22.152Z,94707.97
2019-01-02T23:30:15.389Z,94708.80
2019-01-02T23:33:04.004Z,94718.57
2019-01-02T23:35:53.154Z,94717.47
2019-01-02T23:38:52.520Z,94713.38
2019-01-02T23:41:41.575Z,94709.28
2019-01-02T23:44:40.655Z,94707.38
2019-01-02T23:47:42.916Z,94709.66
2019-01-02T23:50:44.843Z,94711.28
2019-01-02T23:53:33.750Z,94720.20
2019-01-02T23:56:24.031Z,94710.23
2019-01-02T23:59:06.438Z,94710.54
